地図

経路データ

SID SEASON NUMBER BASIN SUBBASIN NAME ISO_TIME NATURE LAT LON WMO_WIND WMO_PRES WMO_AGENCY TRACK_TYPE DIST2LAND LANDFALL IFLAG USA_AGENCY USA_ATCF_ID USA_LAT USA_LON USA_RECORD USA_STATUS USA_WIND USA_PRES USA_SSHS USA_R34_NE USA_R34_SE USA_R34_SW USA_R34_NW USA_R50_NE USA_R50_SE USA_R50_SW USA_R50_NW USA_R64_NE USA_R64_SE USA_R64_SW USA_R64_NW USA_POCI USA_ROCI USA_RMW USA_EYE TOKYO_LAT TOKYO_LON TOKYO_GRADE TOKYO_WIND TOKYO_PRES TOKYO_R50_DIR TOKYO_R50_LONG TOKYO_R50_SHORT TOKYO_R30_DIR TOKYO_R30_LONG TOKYO_R30_SHORT TOKYO_LAND CMA_LAT CMA_LON CMA_CAT CMA_WIND CMA_PRES HKO_LAT HKO_LON HKO_CAT HKO_WIND HKO_PRES NEWDELHI_LAT NEWDELHI_LON NEWDELHI_GRADE NEWDELHI_WIND NEWDELHI_PRES NEWDELHI_CI NEWDELHI_DP NEWDELHI_POCI REUNION_LAT REUNION_LON REUNION_TYPE REUNION_WIND REUNION_PRES REUNION_TNUM REUNION_CI REUNION_RMW REUNION_R34_NE REUNION_R34_SE REUNION_R34_SW REUNION_R34_NW REUNION_R50_NE REUNION_R50_SE REUNION_R50_SW REUNION_R50_NW REUNION_R64_NE REUNION_R64_SE REUNION_R64_SW REUNION_R64_NW BOM_LAT BOM_LON BOM_TYPE BOM_WIND BOM_PRES BOM_TNUM BOM_CI BOM_RMW BOM_R34_NE BOM_R34_SE BOM_R34_SW BOM_R34_NW BOM_R50_NE BOM_R50_SE BOM_R50_SW BOM_R50_NW BOM_R64_NE BOM_R64_SE BOM_R64_SW BOM_R64_NW BOM_ROCI BOM_POCI BOM_EYE BOM_POS_METHOD BOM_PRES_METHOD NADI_LAT NADI_LON NADI_CAT NADI_WIND NADI_PRES WELLINGTON_LAT WELLINGTON_LON WELLINGTON_WIND WELLINGTON_PRES DS824_LAT DS824_LON DS824_STAGE DS824_WIND DS824_PRES TD9636_LAT TD9636_LON TD9636_STAGE TD9636_WIND TD9636_PRES TD9635_LAT TD9635_LON TD9635_WIND TD9635_PRES TD9635_ROCI NEUMANN_LAT NEUMANN_LON NEUMANN_CLASS NEUMANN_WIND NEUMANN_PRES MLC_LAT MLC_LON MLC_CLASS MLC_WIND MLC_PRES USA_GUST BOM_GUST BOM_GUST_PER REUNION_GUST REUNION_GUST_PER USA_SEAHGT USA_SEARAD_NE USA_SEARAD_SE USA_SEARAD_SW USA_SEARAD_NW STORM_SPEED STORM_DIR
1952354S20037 1953 104 SI MM NOT_NAMED 1952-12-18 12:00:00 NR -19.9000 36.8000 reunion main 123 123 _____O________ -1 -19.9000 36.8000 99 9.90000 10 157
1952354S20037 1953 104 SI MM NOT_NAMED 1952-12-18 15:00:00 NR -20.3366 36.9993 main 172 172 _____P________ -1 -20.3366 36.9993 99 10 156
1952354S20037 1953 104 SI MM NOT_NAMED 1952-12-18 18:00:00 NR -20.7674 37.2031 main 216 211 _____P________ -1 -20.7674 37.2031 99 9 156
1952354S20037 1953 104 SI MM NOT_NAMED 1952-12-18 21:00:00 NR -21.1864 37.4145 main 221 221 _____P________ -1 -21.1864 37.4145 99 9 154
1952354S20037 1953 104 SI MM NOT_NAMED 1952-12-19 00:00:00 NR -21.5879 37.6368 main 226 226 _____P________ -1 -21.5879 37.6368 99 9 151
1952354S20037 1953 104 SI MM NOT_NAMED 1952-12-19 03:00:00 NR -21.9658 37.8734 main 248 247 _____P________ -1 -21.9658 37.8734 99 9 148
1952354S20037 1953 104 SI MM NOT_NAMED 1952-12-19 06:00:00 NR -22.3144 38.1273 main 265 265 _____P________ -1 -22.3144 38.1273 99 8 144
1952354S20037 1953 104 SI MM NOT_NAMED 1952-12-19 09:00:00 NR -22.6278 38.4018 main 288 287 _____P________ -1 -22.6278 38.4018 99 8 138
1952354S20037 1953 104 SI MM NOT_NAMED 1952-12-19 12:00:00 NR -22.9000 38.7000 reunion main 317 317 _____O________ -1 -22.9000 38.7000 99 9.90000 8 131
1952354S20037 1953 104 SI MM NOT_NAMED 1952-12-19 15:00:00 NR -23.1277 39.0252 main 348 348 _____P________ -1 -23.1277 39.0252 99 8 124
1952354S20037 1953 104 SI MM NOT_NAMED 1952-12-19 18:00:00 NR -23.3179 39.3812 main 391 378 _____P________ -1 -23.3179 39.3812 99 8 117
1952354S20037 1953 104 SI MM NOT_NAMED 1952-12-19 21:00:00 NR -23.4802 39.7720 main 373 338 _____P________ -1 -23.4802 39.7720 99 8 112
1952354S20037 1953 104 SI MM NOT_NAMED 1952-12-20 00:00:00 NR -23.6239 40.2018 main 338 305 _____P________ -1 -23.6239 40.2018 99 9 109
1952354S20037 1953 104 SI MM NOT_NAMED 1952-12-20 03:00:00 NR -23.7585 40.6749 main 295 195 _____P________ -1 -23.7585 40.6749 99 14 82
1952354S20037 1953 104 SI MM NOT_NAMED 1952-12-20 06:00:00 TS -23.4247 41.6690 main 186 114 O____P___OO___ jtwc_sh SH031953 -22.8000 42.3000 -1 -23.8932 41.1958 99 -22.8000 42.3000 TC -22.8000 42.3000 7 17 80
1952354S20037 1953 104 SI MM NOT_NAMED 1952-12-20 09:00:00 TS -23.4761 42.5055 main 114 42 P____P___PP___ SH031953 -23.1007 43.0093 -1 -24.0374 41.7692 99 -23.1007 43.0093 TC -23.1043 42.9704 7 15 99
1952354S20037 1953 104 SI MM NOT_NAMED 1952-12-20 12:00:00 TS -23.6475 43.2871 reunion main 32 0 O____O___OP___ jtwc_sh SH031953 -23.4000 43.7000 -1 -24.2000 42.4000 99 9.90000 -23.4000 43.7000 TC -23.4058 43.6439 7 15 106
1952354S20037 1953 104 SI MM NOT_NAMED 1952-12-20 15:00:00 TS -23.8859 44.0592 main 0 0 P____P___PP___ SH031953 -23.6996 44.3578 -1 -24.4398 43.2005 99 -23.6996 44.3578 TC -23.7044 44.3205 7 15 111
1952354S20037 1953 104 SI MM NOT_NAMED 1952-12-20 18:00:00 TS -24.1735 44.7696 main 0 0 O____P___OO___ jtwc_sh SH031953 -24.0000 45.0000 -1 -24.6942 44.0786 99 -24.0000 45.0000 TC -24.0000 45.0000 2 14 114
1952354S20037 1953 104 SI MM NOT_NAMED 1952-12-20 21:00:00 TS -24.4646 45.4869 main 0 0 P____P___PP___ SH031953 -24.2997 45.6503 -1 -24.9547 45.0016 99 -24.2997 45.6503 TC -24.3041 45.6453 2 14 116
1952354S20037 1953 104 SI MM NOT_NAMED 1952-12-21 00:00:00 TS -24.7900 46.1866 main 0 0 O____P___OP___ jtwc_sh SH031953 -24.6000 46.3000 -1 -25.2133 45.9360 99 -24.6000 46.3000 TC -24.6056 46.2938 2 15 117
1952354S20037 1953 104 SI MM NOT_NAMED 1952-12-21 03:00:00 TS -25.1263 46.9079 main 10 10 P____P___PP___ SH031953 -24.9006 46.9494 -1 -25.4631 46.8478 99 -24.9006 46.9494 TC -24.9043 46.9454 2 15 118
1952354S20037 1953 104 SI MM NOT_NAMED 1952-12-21 06:00:00 TS -25.4844 47.6585 main 82 82 O____P___OO___ jtwc_sh SH031953 -25.2000 47.6000 -1 -25.6977 47.7023 99 -25.2000 47.6000 TC -25.2000 47.6000 2 16 119
1952354S20037 1953 104 SI MM NOT_NAMED 1952-12-21 09:00:00 NR -25.9116 48.4647 main 172 172 _____P________ SH031953 -1 -25.9116 48.4647 99 TC 2 14 115
1952354S20037 1953 104 SI MM NOT_NAMED 1952-12-21 12:00:00 NR -26.1000 49.1000 reunion main 235 235 _____O________ -1 -26.1000 49.1000 99 9.90000 2 11 109
1952354S20037 1953 104 SI MM NOT_NAMED 1952-12-21 15:00:00 NR -26.2601 49.5822 main 289 289 _____P________ -1 -26.2601 49.5822 99 2 8 112
1952354S20037 1953 104 SI MM NOT_NAMED 1952-12-21 18:00:00 NR -26.3952 49.9220 main 320 320 _____P________ -1 -26.3952 49.9220 99 6 117
1952354S20037 1953 104 SI MM NOT_NAMED 1952-12-21 21:00:00 NR -26.5096 50.1395 main 343 343 _____P________ -1 -26.5096 50.1395 99 4 125
1952354S20037 1953 104 SI MM NOT_NAMED 1952-12-22 00:00:00 NR -26.6074 50.2547 main 366 366 _____P________ -1 -26.6074 50.2547 99 2 145
1952354S20037 1953 104 SI MM NOT_NAMED 1952-12-22 03:00:00 NR -26.6920 50.2880 main 372 372 _____P________ -1 -26.6920 50.2880 99 2 0
1952354S20037 1953 104 SI MM NOT_NAMED 1952-12-22 06:00:00 NR -26.7668 50.2597 main 377 369 _____P________ -1 -26.7668 50.2597 99 2 212
1952354S20037 1953 104 SI MM NOT_NAMED 1952-12-22 09:00:00 NR -26.8351 50.1902 main 369 367 _____P________ -1 -26.8351 50.1902 99 2 227
1952354S20037 1953 104 SI MM NOT_NAMED 1952-12-22 12:00:00 NR -26.9000 50.1000 reunion main 367 _____O________ -1 -26.9000 50.1000 99 9.90000 2 232

IBTrACS Databaseについて

本データベースは、米国NOAAが公開する1842年以降の世界の熱帯低気圧のベストトラックデータアーカイブInternational Best Track Archive for Climate Stewardship (IBTrACS)を、ウェブで閲覧しやすい形式に変換したものです。

最終更新日:2021-12-03